Sachse's Hourly Summary for Wednesday, July 11, 2018
Hour Temp
(f)
RH
(%)
Solar Rad.
(MJ/m2)
Rainfall
(in)
Wind
(mph)
Battery
(volts)
7/11/2018 12:00 AM 78 74 0 0 0 12.45
7/11/2018 1:00 AM 77 75 0 0 0 12.41
7/11/2018 2:00 AM 74 78 0 0 0.14 12.38
7/11/2018 3:00 AM 74 91 0 0 0 12.35
7/11/2018 4:00 AM 76 87 0 0 0.26 12.32
7/11/2018 5:00 AM 75 85 0 0 0.01 12.3
7/11/2018 6:00 AM 75 85 0 0 0 12.26
7/11/2018 7:00 AM 76 85 0.03 0 0.14 12.25
7/11/2018 8:00 AM 76 84 0.17 0 0 12.25
7/11/2018 9:00 AM 78 81 0.4 0 2.13 12.27
7/11/2018 10:00 AM 80 69 1 0 2.74 12.36
7/11/2018 11:00 AM 84 56 2.13 0 3.08 12.81
7/11/2018 12:00 PM 88 53 2.4 0 1.97 12.89
7/11/2018 1:00 PM 91 42 2.98 0 3.87 13.02
7/11/2018 2:00 PM 93 39 2.64 0 4.07 12.88
7/11/2018 3:00 PM 94 31 2.27 0 4.22 12.93
7/11/2018 4:00 PM 95 31 1.88 0 3.55 12.87
7/11/2018 5:00 PM 94 36 1.89 0 7 12.89
7/11/2018 6:00 PM 93 38 0.71 0 5.42 12.72
7/11/2018 7:00 PM 89 40 0.43 0 5.4 12.67
7/11/2018 8:00 PM 87 56 0.21 0 4.11 12.61
7/11/2018 9:00 PM 85 58 0.04 0 3.54 12.57
7/11/2018 10:00 PM 83 63 0 0 3.88 12.54
7/11/2018 11:00 PM 81 64 0 0 3.12 12.51
Data Summary 83 62 19.18 0.00 2.44 12.56